createdAt,value
2023-02-08T00:00:00.719Z,83.28
2023-02-08T00:02:27.066Z,83.89
2023-02-08T00:04:53.394Z,83.58
2023-02-08T00:07:19.731Z,83.55
2023-02-08T00:09:46.105Z,83.27
2023-02-08T00:12:12.417Z,82.48
2023-02-08T00:14:38.713Z,82.78
2023-02-08T00:17:05.041Z,82.72
2023-02-08T00:19:31.364Z,83.20
2023-02-08T00:21:57.663Z,84.34
2023-02-08T00:24:23.980Z,84.01
2023-02-08T00:26:50.323Z,84.48
2023-02-08T00:29:16.645Z,83.64
2023-02-08T00:31:43.065Z,82.77
2023-02-08T00:34:09.541Z,82.61
2023-02-08T00:36:35.921Z,83.34
2023-02-08T00:39:02.356Z,82.67
2023-02-08T00:41:28.664Z,81.08
2023-02-08T00:43:54.997Z,82.13
2023-02-08T00:46:21.586Z,81.95
2023-02-08T00:48:49.516Z,82.53
2023-02-08T00:51:15.858Z,82.45
2023-02-08T00:53:45.008Z,83.63
2023-02-08T00:56:13.318Z,82.39
2023-02-08T00:58:40.065Z,83.04
2023-02-08T01:01:07.413Z,83.37
2023-02-08T01:03:39.392Z,83.28
2023-02-08T01:06:09.053Z,83.18
2023-02-08T01:08:35.832Z,82.43
2023-02-08T01:11:04.461Z,83.18
2023-02-08T01:13:30.916Z,82.50
2023-02-08T01:16:06.527Z,81.92
2023-02-08T01:18:33.007Z,82.19
2023-02-08T01:21:05.732Z,83.23
2023-02-08T01:23:32.088Z,83.80
2023-02-08T01:25:58.425Z,85.21
2023-02-08T01:28:24.862Z,84.81
2023-02-08T01:30:51.317Z,83.25
2023-02-08T01:33:17.620Z,84.00
2023-02-08T01:35:43.945Z,85.28
2023-02-08T01:38:10.286Z,83.57
2023-02-08T01:40:36.631Z,84.29
2023-02-08T01:43:02.975Z,84.39
2023-02-08T01:45:31.298Z,84.35
2023-02-08T01:48:06.367Z,85.02
2023-02-08T01:50:43.427Z,85.15
2023-02-08T01:53:11.085Z,84.58
2023-02-08T01:55:44.513Z,85.70
2023-02-08T01:58:14.231Z,84.73
2023-02-08T02:00:42.143Z,85.02
2023-02-08T02:03:12.911Z,83.82
2023-02-08T02:05:43.282Z,82.52
2023-02-08T02:08:11.299Z,82.82
2023-02-08T02:10:39.571Z,82.95
2023-02-08T02:13:10.610Z,83.83
2023-02-08T02:15:36.992Z,83.18
2023-02-08T02:18:06.638Z,83.22
2023-02-08T02:20:56.816Z,84.83
2023-02-08T02:23:41.107Z,84.70
2023-02-08T02:26:29.456Z,84.06
2023-02-08T02:29:15.154Z,84.61
2023-02-08T02:32:15.587Z,83.66
2023-02-08T02:34:51.586Z,83.85
2023-02-08T02:37:18.281Z,84.15
2023-02-08T02:40:15.076Z,85.28
2023-02-08T02:43:24.443Z,84.04
2023-02-08T02:46:08.831Z,84.42
2023-02-08T02:49:02.668Z,83.03
2023-02-08T02:51:50.536Z,83.08
2023-02-08T02:54:20.840Z,82.97
2023-02-08T02:56:56.110Z,83.32
2023-02-08T02:59:22.955Z,85.26
2023-02-08T03:01:49.442Z,84.82
2023-02-08T03:04:41.817Z,84.33
2023-02-08T03:07:18.737Z,83.11
2023-02-08T03:10:20.531Z,82.47
2023-02-08T03:13:24.150Z,83.68
2023-02-08T03:16:28.312Z,85.23
2023-02-08T03:19:27.534Z,84.69
2023-02-08T03:22:03.796Z,85.14
2023-02-08T03:24:42.072Z,84.33
2023-02-08T03:27:23.125Z,85.01
2023-02-08T03:30:14.319Z,83.40
2023-02-08T03:32:50.147Z,83.98
2023-02-08T03:35:22.307Z,83.38
2023-02-08T03:38:04.435Z,83.76
2023-02-08T03:40:40.275Z,85.02
2023-02-08T03:43:16.285Z,84.41
2023-02-08T03:45:50.444Z,85.94
2023-02-08T03:48:20.181Z,85.39
2023-02-08T03:50:51.417Z,85.40
2023-02-08T03:53:21.966Z,86.07
2023-02-08T03:55:52.896Z,85.31
2023-02-08T03:58:28.200Z,85.80
2023-02-08T04:01:00.070Z,86.21
2023-02-08T04:03:29.619Z,86.91
2023-02-08T04:05:56.126Z,87.13
2023-02-08T04:08:22.974Z,86.45
2023-02-08T04:10:49.572Z,86.31
2023-02-08T04:13:16.230Z,85.73
2023-02-08T04:15:44.118Z,85.80
2023-02-08T04:18:10.773Z,85.83
2023-02-08T04:20:37.067Z,85.32
2023-02-08T04:23:03.392Z,85.35
2023-02-08T04:25:29.689Z,85.45
2023-02-08T04:27:56.006Z,85.53
2023-02-08T04:30:22.524Z,84.56
2023-02-08T04:32:49.004Z,85.77
2023-02-08T04:35:15.407Z,85.60
2023-02-08T04:37:41.737Z,85.48
2023-02-08T04:40:08.524Z,84.42
2023-02-08T04:42:35.162Z,84.41
2023-02-08T04:45:01.452Z,83.22
2023-02-08T04:47:27.803Z,85.06
2023-02-08T04:49:54.122Z,84.60
2023-02-08T04:52:20.418Z,85.16
2023-02-08T04:54:46.775Z,87.91
2023-02-08T04:57:14.313Z,87.63
2023-02-08T04:59:40.980Z,87.70
2023-02-08T05:02:07.386Z,86.86
2023-02-08T05:04:34.026Z,87.59
2023-02-08T05:07:00.353Z,86.77
2023-02-08T05:09:26.695Z,86.01
2023-02-08T05:11:53.017Z,85.04
2023-02-08T05:14:19.338Z,84.40
2023-02-08T05:16:45.688Z,86.27
2023-02-08T05:19:13.511Z,85.74
2023-02-08T05:21:39.834Z,84.84
2023-02-08T05:24:07.102Z,87.56
2023-02-08T05:26:33.545Z,86.97
2023-02-08T05:28:59.863Z,85.49
2023-02-08T05:31:26.306Z,85.94
2023-02-08T05:33:53.154Z,84.47
2023-02-08T05:36:21.100Z,85.78
2023-02-08T05:38:47.397Z,85.53
2023-02-08T05:41:13.700Z,86.93
2023-02-08T05:43:40.050Z,86.15
2023-02-08T05:46:06.351Z,85.74
2023-02-08T05:48:33.297Z,86.39
2023-02-08T05:51:00.376Z,86.82
2023-02-08T05:53:27.361Z,85.92
2023-02-08T05:55:53.739Z,84.61
2023-02-08T05:58:20.089Z,85.96
2023-02-08T06:00:46.484Z,85.94
2023-02-08T06:03:12.906Z,85.90
2023-02-08T06:05:40.704Z,85.75
2023-02-08T06:08:07.920Z,85.83
2023-02-08T06:10:35.092Z,86.20
2023-02-08T06:13:01.668Z,87.00
2023-02-08T06:15:28.095Z,88.00
2023-02-08T06:17:54.467Z,87.09
2023-02-08T06:20:20.872Z,86.87
2023-02-08T06:22:47.223Z,86.27
2023-02-08T06:25:13.527Z,85.51
2023-02-08T06:27:39.839Z,85.86
2023-02-08T06:30:06.371Z,85.20
2023-02-08T06:32:32.767Z,85.99
2023-02-08T06:34:59.197Z,86.05
2023-02-08T06:37:25.476Z,85.90
2023-02-08T06:39:51.789Z,86.45
2023-02-08T06:42:18.142Z,85.91
2023-02-08T06:44:54.430Z,86.07
2023-02-08T06:47:22.800Z,85.89
2023-02-08T06:49:49.142Z,85.64
2023-02-08T06:52:15.433Z,86.03
2023-02-08T06:54:41.820Z,87.99
2023-02-08T06:57:08.328Z,86.78
2023-02-08T06:59:35.125Z,86.77
2023-02-08T07:02:01.712Z,86.49
2023-02-08T07:04:28.164Z,86.28
2023-02-08T07:06:54.504Z,85.95
2023-02-08T07:09:20.838Z,85.97
2023-02-08T07:11:47.149Z,86.88
2023-02-08T07:14:14.900Z,86.71
2023-02-08T07:16:41.775Z,85.81
2023-02-08T07:19:08.246Z,86.75
2023-02-08T07:21:34.563Z,86.08
2023-02-08T07:24:00.864Z,86.17
2023-02-08T07:26:27.218Z,86.62
2023-02-08T07:28:53.590Z,86.72
2023-02-08T07:31:19.936Z,87.51
2023-02-08T07:33:46.306Z,89.08
2023-02-08T07:36:12.712Z,87.64
2023-02-08T07:38:39.319Z,88.89
2023-02-08T07:41:09.044Z,88.35
2023-02-08T07:43:36.962Z,89.14
2023-02-08T07:46:19.551Z,90.96
2023-02-08T07:48:46.156Z,90.39
2023-02-08T07:51:12.976Z,89.76
2023-02-08T07:53:39.481Z,89.67
2023-02-08T07:56:06.041Z,92.15
2023-02-08T07:58:32.400Z,93.36
2023-02-08T08:01:04.875Z,92.84
2023-02-08T08:03:38.850Z,93.09
2023-02-08T08:06:05.376Z,91.18
2023-02-08T08:08:31.684Z,92.12
2023-02-08T08:10:58.046Z,93.07
2023-02-08T08:13:24.330Z,93.40
2023-02-08T08:15:50.674Z,93.80
2023-02-08T08:18:17.304Z,93.24
2023-02-08T08:20:43.628Z,93.74
2023-02-08T08:23:09.923Z,93.19
2023-02-08T08:25:38.052Z,94.87
2023-02-08T08:28:05.020Z,97.03
2023-02-08T08:30:31.459Z,96.42
2023-02-08T08:32:58.077Z,97.15
2023-02-08T08:35:24.389Z,96.52
2023-02-08T08:37:50.692Z,96.09
2023-02-08T08:40:17.071Z,96.29
2023-02-08T08:42:43.445Z,95.09
2023-02-08T08:45:10.561Z,93.80
2023-02-08T08:47:36.950Z,94.00
2023-02-08T08:50:03.761Z,93.11
2023-02-08T08:52:30.178Z,92.66
2023-02-08T08:54:56.550Z,92.28
2023-02-08T08:57:22.954Z,91.21
2023-02-08T08:59:49.289Z,92.33
2023-02-08T09:02:15.678Z,92.64
2023-02-08T09:04:42.084Z,92.99
2023-02-08T09:07:10.214Z,91.65
2023-02-08T09:09:36.807Z,92.82
2023-02-08T09:12:03.637Z,92.50
2023-02-08T09:14:29.992Z,92.05
2023-02-08T09:16:56.317Z,92.69
2023-02-08T09:19:22.678Z,92.90
2023-02-08T09:21:48.964Z,93.41
2023-02-08T09:24:16.274Z,91.19
2023-02-08T09:26:42.726Z,91.44
2023-02-08T09:29:09.062Z,90.12
2023-02-08T09:31:37.796Z,88.25
2023-02-08T09:34:05.699Z,86.79
2023-02-08T09:36:34.749Z,86.08
2023-02-08T09:39:06.712Z,85.27
2023-02-08T09:42:04.057Z,85.01
2023-02-08T09:44:49.431Z,83.77
2023-02-08T09:47:36.011Z,83.83
2023-02-08T09:50:11.406Z,81.65
2023-02-08T09:52:47.304Z,79.81
2023-02-08T09:55:29.912Z,79.62
2023-02-08T09:57:59.143Z,80.86
2023-02-08T10:00:34.302Z,79.49
2023-02-08T10:03:02.273Z,80.27
2023-02-08T10:05:30.621Z,80.84
2023-02-08T10:07:58.552Z,81.26
2023-02-08T10:10:43.944Z,80.13
2023-02-08T10:13:41.390Z,78.71
2023-02-08T10:16:27.127Z,77.28
2023-02-08T10:19:06.550Z,76.38
2023-02-08T10:21:52.255Z,77.17
2023-02-08T10:24:49.781Z,76.12
2023-02-08T10:27:22.497Z,76.02
2023-02-08T10:30:00.232Z,74.30
2023-02-08T10:32:51.228Z,73.14
2023-02-08T10:35:26.579Z,72.55
2023-02-08T10:37:53.834Z,70.81
2023-02-08T10:40:30.263Z,68.83
2023-02-08T10:43:24.388Z,69.97
2023-02-08T10:46:12.553Z,67.01
2023-02-08T10:48:58.837Z,66.11
2023-02-08T10:51:26.036Z,66.43
2023-02-08T10:53:53.509Z,64.88
2023-02-08T10:56:35.248Z,65.75
2023-02-08T10:59:11.546Z,63.75
2023-02-08T11:01:37.856Z,62.99
2023-02-08T11:04:12.790Z,62.39
2023-02-08T11:06:41.160Z,61.19
2023-02-08T11:09:20.439Z,59.02
2023-02-08T11:11:46.939Z,57.13
2023-02-08T11:14:24.197Z,55.92
2023-02-08T11:16:52.756Z,55.23
2023-02-08T11:19:28.111Z,53.92
2023-02-08T11:21:54.615Z,52.39
2023-02-08T11:24:35.796Z,52.29
2023-02-08T11:27:02.883Z,49.15
2023-02-08T11:29:31.319Z,49.46
2023-02-08T11:32:00.989Z,49.47
2023-02-08T11:34:41.226Z,48.47
2023-02-08T11:37:20.715Z,48.12
2023-02-08T11:39:55.905Z,48.12
2023-02-08T11:42:28.817Z,47.96
2023-02-08T11:44:57.025Z,46.01
2023-02-08T11:47:30.519Z,45.48
2023-02-08T11:49:59.934Z,43.92
2023-02-08T11:52:30.731Z,45.09
2023-02-08T11:55:25.067Z,44.51
2023-02-08T11:58:14.374Z,44.98
2023-02-08T12:00:41.243Z,44.97
2023-02-08T12:03:07.503Z,44.96
2023-02-08T12:05:51.084Z,43.87
2023-02-08T12:08:28.953Z,42.46
2023-02-08T12:11:21.912Z,44.18
2023-02-08T12:14:23.879Z,43.68
2023-02-08T12:17:12.041Z,43.93
2023-02-08T12:20:08.260Z,41.60
2023-02-08T12:22:40.556Z,41.67
2023-02-08T12:25:28.606Z,40.19
2023-02-08T12:28:16.467Z,41.63
2023-02-08T12:31:24.499Z,40.49
2023-02-08T12:34:28.809Z,39.76
2023-02-08T12:37:44.960Z,40.00
2023-02-08T12:40:42.366Z,39.23
2023-02-08T12:43:19.930Z,38.76
2023-02-08T12:46:11.337Z,38.25
2023-02-08T12:48:43.650Z,35.97
2023-02-08T12:51:36.196Z,37.63
2023-02-08T12:54:30.335Z,37.90
2023-02-08T12:57:02.356Z,37.99
2023-02-08T12:59:38.609Z,39.29
2023-02-08T13:02:16.013Z,40.72
2023-02-08T13:04:47.158Z,42.89
2023-02-08T13:07:19.998Z,43.66
2023-02-08T13:09:58.875Z,44.05
2023-02-08T13:12:39.918Z,45.38
2023-02-08T13:15:30.177Z,43.63
2023-02-08T13:18:04.129Z,44.61
2023-02-08T13:20:39.813Z,47.08
2023-02-08T13:23:50.594Z,46.59
2023-02-08T13:26:24.427Z,46.28
2023-02-08T13:28:53.765Z,46.00
2023-02-08T13:31:22.786Z,46.26
2023-02-08T13:34:08.079Z,46.27
2023-02-08T13:36:41.424Z,45.28
2023-02-08T13:39:26.247Z,45.96
2023-02-08T13:41:55.297Z,45.52
2023-02-08T13:44:30.488Z,44.60
2023-02-08T13:46:57.080Z,44.82
2023-02-08T13:49:43.674Z,46.30
2023-02-08T13:52:12.037Z,46.99
2023-02-08T13:54:38.657Z,47.44
2023-02-08T13:57:43.455Z,45.84
2023-02-08T14:00:20.266Z,46.16
2023-02-08T14:03:03.357Z,47.01
2023-02-08T14:05:45.121Z,46.26
2023-02-08T14:08:28.091Z,47.35
2023-02-08T14:11:13.661Z,46.67
2023-02-08T14:13:50.511Z,45.65
2023-02-08T14:16:40.029Z,44.46
2023-02-08T14:19:23.036Z,43.91
2023-02-08T14:22:04.749Z,44.51
2023-02-08T14:24:44.193Z,44.16
2023-02-08T14:27:46.053Z,43.69
2023-02-08T14:30:18.426Z,42.51
2023-02-08T14:33:04.897Z,42.60
2023-02-08T14:35:36.595Z,41.58
2023-02-08T14:38:24.470Z,42.76
2023-02-08T14:40:52.621Z,41.81
2023-02-08T14:43:18.892Z,41.87
2023-02-08T14:45:52.838Z,41.89
2023-02-08T14:48:26.312Z,42.60
2023-02-08T14:51:16.434Z,42.95
2023-02-08T14:53:55.017Z,43.81
2023-02-08T14:56:28.008Z,44.73
2023-02-08T14:58:59.318Z,44.94
2023-02-08T15:01:28.658Z,46.40
2023-02-08T15:04:01.556Z,47.50
2023-02-08T15:06:37.621Z,48.30
2023-02-08T15:09:17.637Z,48.88
2023-02-08T15:12:03.312Z,47.72
2023-02-08T15:14:33.433Z,45.74
2023-02-08T15:17:00.119Z,45.49
2023-02-08T15:19:28.300Z,45.69
2023-02-08T15:21:55.136Z,44.64
2023-02-08T15:24:29.583Z,44.57
2023-02-08T15:26:57.791Z,44.41
2023-02-08T15:29:39.113Z,44.29
2023-02-08T15:32:17.549Z,44.45
2023-02-08T15:34:46.636Z,44.86
2023-02-08T15:37:17.790Z,44.26
2023-02-08T15:39:44.213Z,44.88
2023-02-08T15:42:22.746Z,45.94
2023-02-08T15:44:49.689Z,46.77
2023-02-08T15:47:25.697Z,46.75
2023-02-08T15:49:53.658Z,45.28
2023-02-08T15:52:24.329Z,46.09
2023-02-08T15:54:51.615Z,45.68
2023-02-08T15:57:36.840Z,46.84
2023-02-08T16:00:12.841Z,47.57
2023-02-08T16:02:39.240Z,47.66
2023-02-08T16:05:20.253Z,47.85
2023-02-08T16:07:47.605Z,48.04
2023-02-08T16:10:40.349Z,48.18
2023-02-08T16:13:17.870Z,47.31
2023-02-08T16:15:46.650Z,47.65
2023-02-08T16:18:46.060Z,47.66
2023-02-08T16:21:25.828Z,47.69
2023-02-08T16:23:56.506Z,47.88
2023-02-08T16:26:35.053Z,47.81
2023-02-08T16:29:04.241Z,48.46
2023-02-08T16:31:32.866Z,49.06
2023-02-08T16:34:05.816Z,50.91
2023-02-08T16:36:35.882Z,51.52
2023-02-08T16:39:22.177Z,53.26
2023-02-08T16:42:06.467Z,56.08
2023-02-08T16:45:17.014Z,57.17
2023-02-08T16:47:56.922Z,58.49
2023-02-08T16:50:27.155Z,59.60
2023-02-08T16:52:58.534Z,59.49
2023-02-08T16:55:26.805Z,59.82
2023-02-08T16:57:55.730Z,60.12
2023-02-08T17:00:31.868Z,61.27
2023-02-08T17:02:58.305Z,61.53
2023-02-08T17:05:28.263Z,61.08
2023-02-08T17:07:54.880Z,61.46
2023-02-08T17:10:29.850Z,62.17
2023-02-08T17:13:09.743Z,63.00
2023-02-08T17:15:44.317Z,62.86
2023-02-08T17:18:12.371Z,63.01
2023-02-08T17:20:38.772Z,63.34
2023-02-08T17:23:05.787Z,63.91
2023-02-08T17:25:33.726Z,64.24
2023-02-08T17:28:07.353Z,64.70
2023-02-08T17:30:40.228Z,64.97
2023-02-08T17:33:07.680Z,65.51
2023-02-08T17:35:37.488Z,66.12
2023-02-08T17:38:04.821Z,67.12
2023-02-08T17:40:33.424Z,65.77
2023-02-08T17:43:00.244Z,65.71
2023-02-08T17:45:28.031Z,64.75
2023-02-08T17:47:55.810Z,66.09
2023-02-08T17:50:23.152Z,66.22
2023-02-08T17:52:49.482Z,65.45
2023-02-08T17:55:17.751Z,65.96
2023-02-08T17:57:45.225Z,65.57
2023-02-08T18:00:23.577Z,64.76
2023-02-08T18:02:52.450Z,64.82
2023-02-08T18:05:21.916Z,65.65
2023-02-08T18:07:48.515Z,65.74
2023-02-08T18:10:15.195Z,66.70
2023-02-08T18:12:42.784Z,65.78
2023-02-08T18:15:12.065Z,65.16
2023-02-08T18:17:39.427Z,66.70
2023-02-08T18:20:06.870Z,66.22
2023-02-08T18:22:33.241Z,67.56
2023-02-08T18:24:59.587Z,68.43
2023-02-08T18:27:27.025Z,68.81
2023-02-08T18:29:54.468Z,68.33
2023-02-08T18:32:21.928Z,67.53
2023-02-08T18:34:49.507Z,68.08
2023-02-08T18:37:16.388Z,68.67
2023-02-08T18:39:42.906Z,68.37
2023-02-08T18:42:09.323Z,67.88
2023-02-08T18:44:38.414Z,68.76
2023-02-08T18:47:07.134Z,68.91
2023-02-08T18:49:40.193Z,69.00
2023-02-08T18:52:15.658Z,70.76
2023-02-08T18:54:42.058Z,70.23
2023-02-08T18:57:11.341Z,70.49
2023-02-08T18:59:38.379Z,69.76
2023-02-08T19:02:06.880Z,70.25
2023-02-08T19:04:38.115Z,69.87
2023-02-08T19:07:05.291Z,70.53
2023-02-08T19:09:35.587Z,70.21
2023-02-08T19:12:01.941Z,70.29
2023-02-08T19:14:28.388Z,71.75
2023-02-08T19:16:54.728Z,72.82
2023-02-08T19:19:21.327Z,72.54
2023-02-08T19:21:47.708Z,72.41
2023-02-08T19:24:15.254Z,71.36
2023-02-08T19:26:41.839Z,71.89
2023-02-08T19:29:13.234Z,72.24
2023-02-08T19:31:40.278Z,71.93
2023-02-08T19:34:07.044Z,71.55
2023-02-08T19:36:37.534Z,71.66
2023-02-08T19:39:06.362Z,72.88
2023-02-08T19:41:38.495Z,73.50
2023-02-08T19:44:07.468Z,72.47
2023-02-08T19:46:38.607Z,72.04
2023-02-08T19:49:05.905Z,71.80
2023-02-08T19:51:34.588Z,72.14
2023-02-08T19:54:02.287Z,72.57
2023-02-08T19:56:33.801Z,72.32
2023-02-08T19:59:03.766Z,72.41
2023-02-08T20:01:33.020Z,72.49
2023-02-08T20:04:00.171Z,72.13
2023-02-08T20:06:29.881Z,71.68
2023-02-08T20:08:56.234Z,72.72
2023-02-08T20:11:28.340Z,72.94
2023-02-08T20:13:57.213Z,72.86
2023-02-08T20:16:24.432Z,72.94
2023-02-08T20:18:50.868Z,72.46
2023-02-08T20:21:18.182Z,71.68
2023-02-08T20:23:45.281Z,73.11
2023-02-08T20:26:11.587Z,73.21
2023-02-08T20:28:39.973Z,73.49
2023-02-08T20:31:08.981Z,73.40
2023-02-08T20:33:35.476Z,72.52
2023-02-08T20:36:10.353Z,72.26
2023-02-08T20:38:37.652Z,73.42
2023-02-08T20:41:09.305Z,73.74
2023-02-08T20:43:36.467Z,72.98
2023-02-08T20:46:07.842Z,73.75
2023-02-08T20:48:34.646Z,74.59
2023-02-08T20:51:21.557Z,73.88
2023-02-08T20:53:49.091Z,74.58
2023-02-08T20:56:18.591Z,75.36
2023-02-08T20:58:45.719Z,74.86
2023-02-08T21:01:15.381Z,74.30
2023-02-08T21:03:42.714Z,74.87
2023-02-08T21:06:18.479Z,74.88
2023-02-08T21:08:45.686Z,76.23
2023-02-08T21:11:12.299Z,76.19
2023-02-08T21:13:38.779Z,76.86
2023-02-08T21:16:09.185Z,75.47
2023-02-08T21:18:36.456Z,75.81
2023-02-08T21:21:06.319Z,76.28
2023-02-08T21:23:33.554Z,75.45
2023-02-08T21:26:01.441Z,74.25
2023-02-08T21:28:28.194Z,74.64
2023-02-08T21:31:19.781Z,75.81
2023-02-08T21:33:46.252Z,76.52
2023-02-08T21:36:14.970Z,75.52
2023-02-08T21:38:42.086Z,75.09
2023-02-08T21:41:19.989Z,74.82
2023-02-08T21:43:47.415Z,75.49
2023-02-08T21:46:13.837Z,76.04
2023-02-08T21:48:58.785Z,75.11
2023-02-08T21:51:44.133Z,74.90
2023-02-08T21:54:31.094Z,75.73
2023-02-08T21:57:02.389Z,75.06
2023-02-08T21:59:29.449Z,74.83
2023-02-08T22:01:56.377Z,75.60
2023-02-08T22:04:22.784Z,76.63
2023-02-08T22:06:49.156Z,77.19
2023-02-08T22:09:20.329Z,75.94
2023-02-08T22:11:49.571Z,75.80
2023-02-08T22:14:16.339Z,76.67
2023-02-08T22:16:42.681Z,76.37
2023-02-08T22:19:09.032Z,76.90
2023-02-08T22:21:35.482Z,76.45
2023-02-08T22:24:01.819Z,77.38
2023-02-08T22:26:28.178Z,77.64
2023-02-08T22:28:54.688Z,77.38
2023-02-08T22:31:21.631Z,77.49
2023-02-08T22:33:48.113Z,77.39
2023-02-08T22:36:14.437Z,78.48
2023-02-08T22:38:40.826Z,78.00
2023-02-08T22:41:12.093Z,77.19
2023-02-08T22:43:38.801Z,76.90
2023-02-08T22:46:05.602Z,75.46
2023-02-08T22:48:32.458Z,76.72
2023-02-08T22:50:59.184Z,76.92
2023-02-08T22:53:26.359Z,77.08
2023-02-08T22:55:56.168Z,77.38
2023-02-08T22:58:23.089Z,78.88
2023-02-08T23:00:49.608Z,78.39
2023-02-08T23:03:17.319Z,78.77
2023-02-08T23:05:45.432Z,78.33
2023-02-08T23:08:12.989Z,79.07
2023-02-08T23:10:39.912Z,77.59
2023-02-08T23:13:06.636Z,78.77
2023-02-08T23:15:33.591Z,78.71
2023-02-08T23:17:59.970Z,77.48
2023-02-08T23:20:26.733Z,77.23
2023-02-08T23:22:53.062Z,76.83
2023-02-08T23:25:19.518Z,77.57
2023-02-08T23:27:45.946Z,80.01
2023-02-08T23:30:12.734Z,79.08
2023-02-08T23:32:39.103Z,78.51
2023-02-08T23:35:05.841Z,78.97
2023-02-08T23:37:32.133Z,79.50
2023-02-08T23:39:59.206Z,79.34
2023-02-08T23:42:25.738Z,78.75
2023-02-08T23:44:57.441Z,77.68
2023-02-08T23:47:25.182Z,77.68
2023-02-08T23:49:51.706Z,78.81
2023-02-08T23:52:18.787Z,78.85
2023-02-08T23:54:45.473Z,78.89
2023-02-08T23:57:11.850Z,78.83
2023-02-08T23:59:39.074Z,78.89
